Jerome, Michigan
Current Conditions -  °F | °C
As of 1:15 PM on Monday 22 Dec 2014 (Local Time) from KJYM Reporting Station
Overcast Overcast  
Wind Chill: -2°   Ceiling: 10000
Heat Index:   Visibility: 10mi
Dew Point: -1°   Wind: 12mph
Humidity: 79%   Direction: 120°ESE
Pressure: 29.92"   Gusts: NA
Location:  42.03°N, 84.47°W
Report Text: KJYM 221815Z AUTO 12010KT 10SM SCT039 OVC100 02/M01 A2992 RMK AO2 T00231010
Loading
Personal Weather Stations






























Interactive Weather Map New forecast layout! Learn more

10-Day Weather Forecast

Advertisements
Track Severe Weather on mobile